createdAt,value
2023-01-20T00:00:25.404Z,10.83
2023-01-20T00:02:55.105Z,11.93
2023-01-20T00:05:24.005Z,9.77
2023-01-20T00:07:52.681Z,10.03
2023-01-20T00:10:22.116Z,10.40
2023-01-20T00:12:50.565Z,9.93
2023-01-20T00:15:19.280Z,10.00
2023-01-20T00:18:08.442Z,10.07
2023-01-20T00:20:36.703Z,11.07
2023-01-20T00:23:05.053Z,11.23
2023-01-20T00:25:36.511Z,10.40
2023-01-20T00:28:05.376Z,9.93
2023-01-20T00:30:34.327Z,11.30
2023-01-20T00:33:02.705Z,10.23
2023-01-20T00:35:32.371Z,10.83
2023-01-20T00:38:00.803Z,10.73
2023-01-20T00:40:29.239Z,10.40
2023-01-20T00:42:59.973Z,10.93
2023-01-20T00:45:28.183Z,10.10
2023-01-20T00:47:56.434Z,9.60
2023-01-20T00:50:28.583Z,9.57
2023-01-20T00:52:58.405Z,10.77
2023-01-20T00:55:27.408Z,11.77
2023-01-20T00:57:56.815Z,10.47
2023-01-20T01:00:25.298Z,10.13
2023-01-20T01:02:55.121Z,10.13
2023-01-20T01:05:23.767Z,11.60
2023-01-20T01:07:52.051Z,11.23
2023-01-20T01:10:21.707Z,10.00
2023-01-20T01:12:50.176Z,9.50
2023-01-20T01:15:19.443Z,10.90
2023-01-20T01:17:48.444Z,9.87
2023-01-20T01:20:18.704Z,9.90
2023-01-20T01:22:47.403Z,9.17
2023-01-20T01:25:15.845Z,9.57
2023-01-20T01:27:57.655Z,10.33
2023-01-20T01:30:26.048Z,11.10
2023-01-20T01:32:54.805Z,9.27
2023-01-20T01:35:23.139Z,9.67
2023-01-20T01:37:51.544Z,11.27
2023-01-20T01:40:35.726Z,9.07
2023-01-20T01:43:11.533Z,8.40
2023-01-20T01:45:40.055Z,10.53
2023-01-20T01:48:10.851Z,9.87
2023-01-20T01:50:44.423Z,9.53
2023-01-20T01:53:14.513Z,8.27
2023-01-20T01:55:46.996Z,8.30
2023-01-20T01:58:19.978Z,9.03
2023-01-20T02:00:48.532Z,9.97
2023-01-20T02:03:17.316Z,9.07
2023-01-20T02:05:47.286Z,10.37
2023-01-20T02:08:15.875Z,9.13
2023-01-20T02:10:44.454Z,8.57
2023-01-20T02:13:12.937Z,9.77
2023-01-20T02:15:49.200Z,8.33
2023-01-20T02:18:41.894Z,8.97
2023-01-20T02:21:47.022Z,9.27
2023-01-20T02:25:11.562Z,8.73
2023-01-20T02:28:07.819Z,10.43
2023-01-20T02:30:57.223Z,9.07
2023-01-20T02:33:31.639Z,9.20
2023-01-20T02:36:05.494Z,10.67
2023-01-20T02:38:42.963Z,10.17
2023-01-20T02:41:27.450Z,12.67
2023-01-20T02:44:02.987Z,9.20
2023-01-20T02:46:35.024Z,8.97
2023-01-20T02:49:17.466Z,10.97
2023-01-20T02:51:52.519Z,8.60
2023-01-20T02:54:24.470Z,8.97
2023-01-20T02:56:53.957Z,8.87
2023-01-20T02:59:26.238Z,9.63
2023-01-20T03:02:03.310Z,8.63
2023-01-20T03:04:38.547Z,8.10
2023-01-20T03:07:08.661Z,8.03
2023-01-20T03:09:57.037Z,11.73
2023-01-20T03:12:31.724Z,7.73
2023-01-20T03:15:00.380Z,9.07
2023-01-20T03:17:29.997Z,8.43
2023-01-20T03:20:12.614Z,9.10
2023-01-20T03:22:40.842Z,8.13
2023-01-20T03:25:10.657Z,8.87
2023-01-20T03:27:54.113Z,10.87
2023-01-20T03:30:25.116Z,8.97
2023-01-20T03:32:58.279Z,9.30
2023-01-20T03:35:28.446Z,9.70
2023-01-20T03:38:04.006Z,10.87
2023-01-20T03:40:37.803Z,9.10
2023-01-20T03:43:12.821Z,8.47
2023-01-20T03:45:44.980Z,8.60
2023-01-20T03:48:19.748Z,11.37
2023-01-20T03:50:56.563Z,10.73
2023-01-20T03:53:34.028Z,11.67
2023-01-20T03:56:07.705Z,10.10
2023-01-20T03:58:39.789Z,12.10
2023-01-20T04:01:18.773Z,10.07
2023-01-20T04:03:50.031Z,9.00
2023-01-20T04:06:23.340Z,9.97
2023-01-20T04:08:56.901Z,8.77
2023-01-20T04:11:27.149Z,10.03
2023-01-20T04:13:55.805Z,8.40
2023-01-20T04:16:25.674Z,10.77
2023-01-20T04:18:55.085Z,7.93
2023-01-20T04:21:30.996Z,8.53
2023-01-20T04:24:06.349Z,9.00
2023-01-20T04:26:34.976Z,10.00
2023-01-20T04:29:11.082Z,9.43
2023-01-20T04:31:41.452Z,8.07
2023-01-20T04:34:13.694Z,9.23
2023-01-20T04:36:44.008Z,10.93
2023-01-20T04:39:12.393Z,8.03
2023-01-20T04:41:40.905Z,8.83
2023-01-20T04:44:09.108Z,11.67
2023-01-20T04:46:37.855Z,10.43
2023-01-20T04:49:06.260Z,9.13
2023-01-20T04:51:34.992Z,12.00
2023-01-20T04:54:05.211Z,10.70
2023-01-20T04:56:34.313Z,9.27
2023-01-20T04:59:02.926Z,8.73
2023-01-20T05:01:32.009Z,11.57
2023-01-20T05:04:01.106Z,10.10
2023-01-20T05:06:30.101Z,9.00
2023-01-20T05:08:58.377Z,8.63
2023-01-20T05:11:28.530Z,9.13
2023-01-20T05:13:56.828Z,9.83
2023-01-20T05:16:26.050Z,9.83
2023-01-20T05:18:55.346Z,9.03
2023-01-20T05:21:24.038Z,10.40
2023-01-20T05:23:54.665Z,11.53
2023-01-20T05:26:23.702Z,9.37
2023-01-20T05:28:54.024Z,11.00
2023-01-20T05:31:22.875Z,8.60
2023-01-20T05:33:51.376Z,9.83
2023-01-20T05:36:20.409Z,9.47
2023-01-20T05:38:48.756Z,11.77
2023-01-20T05:41:17.281Z,11.07
2023-01-20T05:43:45.778Z,8.33
2023-01-20T05:46:15.783Z,10.97
2023-01-20T05:48:44.416Z,9.40
2023-01-20T05:51:13.303Z,10.20
2023-01-20T05:53:42.791Z,9.10
2023-01-20T05:56:15.767Z,10.63
2023-01-20T05:58:45.024Z,10.30
2023-01-20T06:01:16.358Z,9.57
2023-01-20T06:03:44.749Z,9.00
2023-01-20T06:06:15.759Z,9.77
2023-01-20T06:08:44.292Z,9.10
2023-01-20T06:11:14.853Z,9.53
2023-01-20T06:13:44.179Z,11.27
2023-01-20T06:16:12.531Z,10.90
2023-01-20T06:18:43.317Z,16.73
2023-01-20T06:21:18.982Z,12.10
2023-01-20T06:23:47.611Z,12.70
2023-01-20T06:26:16.084Z,13.53
2023-01-20T06:28:44.981Z,13.63
2023-01-20T06:31:15.155Z,13.83
2023-01-20T06:33:45.265Z,15.27
2023-01-20T06:36:17.503Z,13.27
2023-01-20T06:38:50.384Z,13.17
2023-01-20T06:41:20.492Z,13.57
2023-01-20T06:43:50.214Z,11.23
2023-01-20T06:46:19.136Z,10.83
2023-01-20T06:48:49.034Z,11.23
2023-01-20T06:51:19.762Z,10.50
2023-01-20T06:53:48.578Z,12.00
2023-01-20T06:56:17.432Z,10.47
2023-01-20T06:58:46.008Z,12.90
2023-01-20T07:01:17.191Z,10.07
2023-01-20T07:03:45.828Z,11.33
2023-01-20T07:06:19.446Z,11.30
2023-01-20T07:08:48.379Z,9.23
2023-01-20T07:11:17.476Z,11.83
2023-01-20T07:13:46.395Z,10.13
2023-01-20T07:16:18.168Z,10.83
2023-01-20T07:18:49.834Z,12.00
2023-01-20T07:21:20.641Z,12.23
2023-01-20T07:23:50.714Z,12.70
2023-01-20T07:26:21.063Z,10.23
2023-01-20T07:28:51.091Z,11.07
2023-01-20T07:31:21.713Z,9.07
2023-01-20T07:33:51.164Z,11.30
2023-01-20T07:36:21.605Z,10.63
2023-01-20T07:38:51.042Z,10.60
2023-01-20T07:41:21.131Z,13.03
2023-01-20T07:43:52.958Z,17.30
2023-01-20T07:46:21.741Z,18.30
2023-01-20T07:48:51.302Z,19.13
2023-01-20T07:51:21.086Z,18.83
2023-01-20T07:53:52.156Z,15.00
2023-01-20T07:56:22.576Z,15.67
2023-01-20T07:58:51.878Z,14.40
2023-01-20T08:01:39.961Z,11.47
2023-01-20T08:04:08.324Z,12.03
2023-01-20T08:06:38.234Z,20.77
2023-01-20T08:09:12.325Z,16.33
2023-01-20T08:11:41.419Z,14.77
2023-01-20T08:14:09.795Z,12.33
2023-01-20T08:16:40.076Z,11.27
2023-01-20T08:19:10.848Z,12.40
2023-01-20T08:21:40.682Z,13.53
2023-01-20T08:24:12.116Z,14.60
2023-01-20T08:26:41.109Z,13.10
2023-01-20T08:29:12.614Z,14.33
2023-01-20T08:31:41.373Z,12.00
2023-01-20T08:34:10.151Z,12.90
2023-01-20T08:36:42.302Z,14.40
2023-01-20T08:39:14.967Z,15.23
2023-01-20T08:41:45.051Z,13.43
2023-01-20T08:44:13.566Z,15.70
2023-01-20T08:46:52.492Z,14.60
2023-01-20T08:49:22.854Z,15.97
2023-01-20T08:51:52.697Z,16.77
2023-01-20T08:54:22.133Z,16.63
2023-01-20T08:56:52.046Z,17.43
2023-01-20T08:59:21.425Z,14.50
2023-01-20T09:01:50.167Z,16.93
2023-01-20T09:04:18.521Z,16.33
2023-01-20T09:06:50.871Z,15.63
2023-01-20T09:09:23.243Z,17.20
2023-01-20T09:11:52.116Z,16.50
2023-01-20T09:14:22.673Z,15.23
2023-01-20T09:16:51.752Z,17.67
2023-01-20T09:19:21.129Z,13.83
2023-01-20T09:21:52.367Z,16.63
2023-01-20T09:24:23.561Z,16.83
2023-01-20T09:26:52.822Z,16.43
2023-01-20T09:29:22.141Z,16.80
2023-01-20T09:31:52.569Z,15.97
2023-01-20T09:34:24.767Z,18.00
2023-01-20T09:36:55.569Z,16.90
2023-01-20T09:39:44.220Z,16.20
2023-01-20T09:42:43.676Z,18.00
2023-01-20T09:45:25.336Z,15.70
2023-01-20T09:48:01.693Z,17.33
2023-01-20T09:50:56.843Z,17.77
2023-01-20T09:53:36.793Z,17.70
2023-01-20T09:56:13.309Z,14.57
2023-01-20T09:58:49.392Z,15.47
2023-01-20T10:01:30.782Z,16.70
2023-01-20T10:04:07.402Z,16.83
2023-01-20T10:06:41.793Z,16.07
2023-01-20T10:09:18.266Z,16.93
2023-01-20T10:11:50.756Z,19.47
2023-01-20T10:14:24.741Z,17.60
2023-01-20T10:16:57.556Z,17.50
2023-01-20T10:19:34.858Z,16.10
2023-01-20T10:22:11.208Z,18.27
2023-01-20T10:24:48.287Z,17.07
2023-01-20T10:27:17.887Z,18.40
2023-01-20T10:29:52.859Z,19.73
2023-01-20T10:32:29.510Z,17.47
2023-01-20T10:35:02.586Z,19.07
2023-01-20T10:37:32.453Z,15.63
2023-01-20T10:40:08.656Z,16.60
2023-01-20T10:42:38.225Z,16.73
2023-01-20T10:45:15.469Z,17.87
2023-01-20T10:47:51.419Z,21.57
2023-01-20T10:50:43.282Z,21.23
2023-01-20T10:53:33.999Z,21.23
2023-01-20T10:56:20.335Z,21.57
2023-01-20T10:58:50.328Z,17.33
2023-01-20T11:01:20.222Z,16.27
2023-01-20T11:03:50.218Z,13.37
2023-01-20T11:06:21.032Z,16.20
2023-01-20T11:08:49.823Z,16.10
2023-01-20T11:11:22.150Z,15.57
2023-01-20T11:13:53.122Z,14.87
2023-01-20T11:16:25.083Z,14.93
2023-01-20T11:18:59.503Z,13.57
2023-01-20T11:21:30.022Z,10.23
2023-01-20T11:24:01.808Z,11.17
2023-01-20T11:26:32.964Z,13.87
2023-01-20T11:29:30.523Z,12.43
2023-01-20T11:31:59.907Z,12.93
2023-01-20T11:34:31.212Z,13.37
2023-01-20T11:37:19.288Z,12.20
2023-01-20T11:40:00.269Z,10.63
2023-01-20T11:42:31.178Z,10.40
2023-01-20T11:45:20.281Z,9.90
2023-01-20T11:48:05.896Z,8.53
2023-01-20T11:50:39.895Z,7.70
2023-01-20T11:53:23.465Z,9.13
2023-01-20T11:55:57.594Z,7.63
2023-01-20T11:58:28.393Z,10.40
2023-01-20T12:01:04.621Z,8.80
2023-01-20T12:04:12.649Z,9.80
2023-01-20T12:07:04.578Z,9.57
2023-01-20T12:09:39.398Z,8.57
2023-01-20T12:12:14.129Z,9.63
2023-01-20T12:14:48.864Z,11.67
2023-01-20T12:17:38.345Z,11.37
2023-01-20T12:20:12.310Z,12.50
2023-01-20T12:22:49.111Z,11.23
2023-01-20T12:25:22.194Z,10.10
2023-01-20T12:27:54.317Z,12.00
2023-01-20T12:30:47.540Z,16.00
2023-01-20T12:33:36.875Z,37.73
2023-01-20T12:36:48.426Z,13.40
2023-01-20T12:39:48.344Z,16.00
2023-01-20T12:42:58.335Z,14.53
2023-01-20T12:45:44.853Z,10.67
2023-01-20T12:48:25.788Z,13.20
2023-01-20T12:51:20.649Z,14.20
2023-01-20T12:54:09.155Z,11.60
2023-01-20T12:56:45.934Z,11.83
2023-01-20T12:59:26.367Z,13.10
2023-01-20T13:02:11.021Z,11.70
2023-01-20T13:05:12.018Z,10.10
2023-01-20T13:07:50.331Z,11.23
2023-01-20T13:10:31.324Z,13.37
2023-01-20T13:13:08.072Z,11.53
2023-01-20T13:15:41.629Z,11.23
2023-01-20T13:18:26.876Z,12.87
2023-01-20T13:20:56.568Z,12.53
2023-01-20T13:23:28.320Z,22.20
2023-01-20T13:25:59.064Z,28.53
2023-01-20T13:28:29.188Z,26.70
2023-01-20T13:30:59.038Z,12.80
2023-01-20T13:33:36.587Z,18.50
2023-01-20T13:36:18.774Z,13.90
2023-01-20T13:38:50.992Z,11.43
2023-01-20T13:41:50.319Z,12.30
2023-01-20T13:44:35.491Z,13.90
2023-01-20T13:47:05.034Z,11.37
2023-01-20T13:49:49.685Z,11.33
2023-01-20T13:53:04.266Z,12.30
2023-01-20T13:55:54.715Z,11.03
2023-01-20T13:58:25.045Z,13.97
2023-01-20T14:00:55.218Z,13.60
2023-01-20T14:03:27.808Z,14.37
2023-01-20T14:05:59.595Z,14.53
2023-01-20T14:08:32.356Z,13.90
2023-01-20T14:11:13.206Z,12.53
2023-01-20T14:13:41.958Z,10.87
2023-01-20T14:16:20.620Z,10.93
2023-01-20T14:18:50.303Z,10.63
2023-01-20T14:21:22.594Z,9.27
2023-01-20T14:23:51.670Z,12.37
2023-01-20T14:26:28.240Z,11.80
2023-01-20T14:28:57.981Z,9.70
2023-01-20T14:31:37.519Z,11.60
2023-01-20T14:34:24.240Z,10.40
2023-01-20T14:36:54.746Z,11.00
2023-01-20T14:39:24.620Z,11.27
2023-01-20T14:41:57.415Z,12.77
2023-01-20T14:44:34.021Z,13.30
2023-01-20T14:47:04.726Z,12.63
2023-01-20T14:49:35.528Z,11.73
2023-01-20T14:52:06.177Z,11.37
2023-01-20T14:54:40.077Z,12.57
2023-01-20T14:57:28.347Z,11.73
2023-01-20T15:00:20.336Z,12.03
2023-01-20T15:03:11.361Z,10.57
2023-01-20T15:05:42.914Z,11.47
2023-01-20T15:08:25.327Z,12.20
2023-01-20T15:11:25.560Z,10.13
2023-01-20T15:14:14.944Z,11.73
2023-01-20T15:16:49.923Z,12.67
2023-01-20T15:19:29.752Z,13.07
2023-01-20T15:22:17.542Z,14.17
2023-01-20T15:24:47.624Z,12.43
2023-01-20T15:27:29.204Z,26.60
2023-01-20T15:30:15.913Z,17.10
2023-01-20T15:32:44.807Z,14.33
2023-01-20T15:35:15.403Z,15.23
2023-01-20T15:37:45.298Z,15.80
2023-01-20T15:40:18.771Z,20.10
2023-01-20T15:42:47.935Z,22.17
2023-01-20T15:45:18.601Z,20.17
2023-01-20T15:47:48.333Z,21.67
2023-01-20T15:50:20.138Z,18.90
2023-01-20T15:52:48.489Z,19.73
2023-01-20T15:55:19.520Z,18.53
2023-01-20T15:57:51.885Z,29.73
2023-01-20T16:00:24.142Z,35.43
2023-01-20T16:02:52.712Z,72.50
2023-01-20T16:05:21.350Z,76.87
2023-01-20T16:07:50.339Z,59.27
2023-01-20T16:10:20.362Z,44.37
2023-01-20T16:12:48.744Z,46.97
2023-01-20T16:15:18.828Z,52.57
2023-01-20T16:17:51.351Z,57.87
2023-01-20T16:20:27.631Z,46.90
2023-01-20T16:22:56.828Z,44.77
2023-01-20T16:25:25.169Z,30.07
2023-01-20T16:27:53.471Z,36.37
2023-01-20T16:30:23.364Z,27.17
2023-01-20T16:32:53.084Z,22.53
2023-01-20T16:35:23.799Z,25.97
2023-01-20T16:37:52.801Z,30.73
2023-01-20T16:40:22.499Z,24.27
2023-01-20T16:42:50.671Z,20.77
2023-01-20T16:45:25.108Z,23.33
2023-01-20T16:47:55.791Z,22.27
2023-01-20T16:50:26.041Z,21.90
2023-01-20T16:52:54.324Z,24.47
2023-01-20T16:55:24.076Z,24.27
2023-01-20T16:57:52.295Z,27.03
2023-01-20T17:00:22.225Z,24.53
2023-01-20T17:02:51.895Z,24.67
2023-01-20T17:05:25.640Z,25.47
2023-01-20T17:07:55.321Z,22.63
2023-01-20T17:10:25.342Z,21.57
2023-01-20T17:12:54.153Z,22.23
2023-01-20T17:15:22.938Z,20.80
2023-01-20T17:17:55.929Z,25.87
2023-01-20T17:20:27.178Z,29.33
2023-01-20T17:22:56.141Z,47.60
2023-01-20T17:25:24.872Z,49.97
2023-01-20T17:27:53.463Z,38.60
2023-01-20T17:30:23.442Z,37.00
2023-01-20T17:32:53.743Z,64.03
2023-01-20T17:35:22.430Z,198.37
2023-01-20T17:37:54.092Z,485.73
2023-01-20T17:40:22.599Z,100.40
2023-01-20T17:42:53.734Z,123.03
2023-01-20T17:45:22.676Z,127.33
2023-01-20T17:47:52.520Z,80.30
2023-01-20T17:50:20.956Z,108.10
2023-01-20T17:52:49.650Z,92.23
2023-01-20T17:55:19.439Z,70.67
2023-01-20T17:57:47.873Z,57.90
2023-01-20T18:00:17.179Z,51.97
2023-01-20T18:02:45.656Z,59.57
2023-01-20T18:05:14.094Z,65.67
2023-01-20T18:07:42.431Z,53.93
2023-01-20T18:10:13.727Z,49.60
2023-01-20T18:12:43.768Z,43.07
2023-01-20T18:15:12.419Z,50.80
2023-01-20T18:17:43.505Z,62.13
2023-01-20T18:20:18.257Z,105.73
2023-01-20T18:22:51.336Z,103.50
2023-01-20T18:25:19.953Z,104.57
2023-01-20T18:27:50.300Z,121.07
2023-01-20T18:30:19.103Z,140.07
2023-01-20T18:32:47.755Z,130.33
2023-01-20T18:35:16.161Z,122.60
2023-01-20T18:37:44.609Z,98.40
2023-01-20T18:40:14.677Z,83.47
2023-01-20T18:42:44.925Z,64.03
2023-01-20T18:45:15.124Z,56.30
2023-01-20T18:47:43.851Z,40.90
2023-01-20T18:50:12.915Z,38.10
2023-01-20T18:52:41.586Z,34.93
2023-01-20T18:55:10.515Z,31.80
2023-01-20T18:57:38.801Z,29.57
2023-01-20T19:00:08.619Z,24.30
2023-01-20T19:02:38.604Z,30.70
2023-01-20T19:05:08.078Z,29.50
2023-01-20T19:07:37.017Z,26.70
2023-01-20T19:10:05.814Z,29.87
2023-01-20T19:12:34.401Z,26.80
2023-01-20T19:15:02.655Z,29.30
2023-01-20T19:17:33.084Z,32.93
2023-01-20T19:20:03.431Z,38.97
2023-01-20T19:22:32.237Z,34.40
2023-01-20T19:25:00.688Z,39.50
2023-01-20T19:27:29.127Z,40.97
2023-01-20T19:29:57.329Z,40.40
2023-01-20T19:32:25.844Z,38.40
2023-01-20T19:34:54.213Z,35.77
2023-01-20T19:37:23.983Z,38.23
2023-01-20T19:39:52.339Z,34.00
2023-01-20T19:42:20.599Z,35.37
2023-01-20T19:44:48.947Z,33.33
2023-01-20T19:47:17.417Z,31.57
2023-01-20T19:49:45.737Z,30.50
2023-01-20T19:52:13.948Z,30.57
2023-01-20T19:54:43.762Z,31.00
2023-01-20T19:57:12.005Z,29.20
2023-01-20T19:59:40.912Z,30.20
2023-01-20T20:02:10.049Z,38.17
2023-01-20T20:04:38.265Z,35.40
2023-01-20T20:07:06.862Z,37.63
2023-01-20T20:09:35.496Z,37.70
2023-01-20T20:12:07.716Z,36.57
2023-01-20T20:14:36.081Z,40.53
2023-01-20T20:17:04.455Z,41.93
2023-01-20T20:19:32.647Z,40.67
2023-01-20T20:22:01.123Z,37.93
2023-01-20T20:24:30.139Z,35.97
2023-01-20T20:26:58.943Z,36.13
2023-01-20T20:29:29.009Z,34.40
2023-01-20T20:31:57.427Z,34.37
2023-01-20T20:34:25.838Z,37.53
2023-01-20T20:36:54.581Z,41.07
2023-01-20T20:39:24.025Z,38.63
2023-01-20T20:41:52.205Z,34.90
2023-01-20T20:44:20.648Z,32.07
2023-01-20T20:46:50.413Z,28.63
2023-01-20T20:49:19.239Z,32.47
2023-01-20T20:51:47.849Z,30.90
2023-01-20T20:54:17.252Z,28.90
2023-01-20T20:56:46.150Z,30.00
2023-01-20T20:59:14.852Z,28.53
2023-01-20T21:01:43.521Z,29.43
2023-01-20T21:04:13.247Z,30.03
2023-01-20T21:06:41.622Z,33.07
2023-01-20T21:09:10.246Z,33.23
2023-01-20T21:11:38.808Z,36.03
2023-01-20T21:14:08.267Z,32.27
2023-01-20T21:16:37.851Z,36.93
2023-01-20T21:19:06.223Z,34.73
2023-01-20T21:21:35.962Z,36.97
2023-01-20T21:24:04.699Z,37.17
2023-01-20T21:26:32.891Z,33.30
2023-01-20T21:29:03.621Z,32.70
2023-01-20T21:31:32.425Z,35.97
2023-01-20T21:34:01.843Z,34.50
2023-01-20T21:36:33.877Z,36.37
2023-01-20T21:39:05.492Z,34.93
2023-01-20T21:41:33.639Z,37.63
2023-01-20T21:44:19.868Z,34.07
2023-01-20T21:46:49.458Z,35.93
2023-01-20T21:49:35.882Z,34.17
2023-01-20T21:52:21.971Z,36.03
2023-01-20T21:54:51.545Z,35.87
2023-01-20T21:57:21.150Z,35.03
2023-01-20T21:59:49.496Z,35.10
2023-01-20T22:02:17.809Z,33.73
2023-01-20T22:04:47.276Z,35.50
2023-01-20T22:07:17.396Z,32.40
2023-01-20T22:10:05.081Z,36.27
2023-01-20T22:12:34.647Z,37.87
2023-01-20T22:15:03.965Z,41.70
2023-01-20T22:17:32.638Z,42.37
2023-01-20T22:20:01.072Z,43.60
2023-01-20T22:22:29.280Z,40.20
2023-01-20T22:24:57.831Z,37.10
2023-01-20T22:27:28.622Z,39.93
2023-01-20T22:29:57.213Z,34.50
2023-01-20T22:32:26.103Z,36.83
2023-01-20T22:34:55.039Z,38.97
2023-01-20T22:37:23.488Z,35.10
2023-01-20T22:39:52.274Z,31.73
2023-01-20T22:42:21.377Z,34.07
2023-01-20T22:44:51.880Z,38.50
2023-01-20T22:47:20.582Z,41.43
2023-01-20T22:49:48.880Z,38.20
2023-01-20T22:52:17.588Z,37.23
2023-01-20T22:54:45.746Z,39.30
2023-01-20T22:57:14.116Z,38.13
2023-01-20T22:59:42.668Z,38.47
2023-01-20T23:02:12.669Z,39.03
2023-01-20T23:04:40.975Z,42.43
2023-01-20T23:07:09.322Z,48.87
2023-01-20T23:09:37.723Z,42.90
2023-01-20T23:12:06.868Z,42.70
2023-01-20T23:14:53.135Z,44.27
2023-01-20T23:17:23.084Z,42.70
2023-01-20T23:19:51.545Z,42.40
2023-01-20T23:22:19.981Z,39.10
2023-01-20T23:24:48.676Z,38.70
2023-01-20T23:27:17.214Z,38.43
2023-01-20T23:29:45.482Z,36.50
2023-01-20T23:32:13.854Z,40.70
2023-01-20T23:34:43.464Z,48.20
2023-01-20T23:38:01.840Z,46.07
2023-01-20T23:40:30.357Z,49.63
2023-01-20T23:42:59.303Z,56.20
2023-01-20T23:46:10.609Z,51.67
2023-01-20T23:48:39.446Z,45.07
2023-01-20T23:51:11.174Z,45.27
2023-01-20T23:53:41.286Z,41.37
2023-01-20T23:56:13.809Z,41.97
2023-01-20T23:58:42.184Z,42.07
